Time;durP1;ratioP1;P1;durP2;ratioP2;P2;SDS_P1;SDS_P2;PMS_P1;PMS_P2;Temp;Humidity;BMP_temperature;BMP_pressure;BME280_temperature;BME280_humidity;BME280_pressure;Samples;Min_cycle;Max_cycle;Signal;HPM_P1;HPM_P2
2022/09/07 00:02:11;;;;;;;3.22;1.95;;;;;;;;;;5074927;28;20032;-44
2022/09/07 00:04:37;;;;;;;1.90;1.70;;;;;;;;;;5074941;28;20016;-45
2022/09/07 00:07:02;;;;;;;3.40;1.52;;;;;;;;;;5074725;28;20050;-45
2022/09/07 00:09:28;;;;;;;2.65;1.73;;;;;;;;;;5074812;28;20041;-45
2022/09/07 00:11:53;;;;;;;6.88;3.15;;;;;;;;;;5074764;28;20071;-45
2022/09/07 00:14:19;;;;;;;2.67;1.80;;;;;;;;;;5074933;28;20025;-45
2022/09/07 00:16:44;;;;;;;3.60;2.38;;;;;;;;;;5073369;28;20433;-44
2022/09/07 00:19:10;;;;;;;2.63;2.20;;;;;;;;;;5074613;28;20111;-45
2022/09/07 00:21:36;;;;;;;2.75;1.92;;;;;;;;;;5074596;28;20082;-45
2022/09/07 00:24:02;;;;;;;2.47;2.25;;;;;;;;;;5074568;28;20066;-44
2022/09/07 00:26:29;;;;;;;5.25;2.38;;;;;;;;;;5073090;28;20040;-45
2022/09/07 00:28:59;;;;;;;2.15;1.90;;;;;;;;;;5073058;28;20548;-44
2022/09/07 00:31:25;;;;;;;3.17;2.40;;;;;;;;;;5074393;28;20032;-44
2022/09/07 00:33:51;;;;;;;2.95;2.45;;;;;;;;;;5073041;28;20616;-44
2022/09/07 00:36:17;;;;;;;5.72;3.08;;;;;;;;;;5074297;28;20029;-44
2022/09/07 00:38:43;;;;;;;10.95;2.35;;;;;;;;;;5074284;28;20046;-45
2022/09/07 00:41:09;;;;;;;10.88;2.92;;;;;;;;;;5074314;28;20029;-44
2022/09/07 00:43:35;;;;;;;7.13;2.30;;;;;;;;;;5074443;28;20021;-44
2022/09/07 00:46:01;;;;;;;2.58;2.38;;;;;;;;;;5074024;28;20032;-44
2022/09/07 00:48:30;;;;;;;3.65;2.58;;;;;;;;;;5072606;28;20034;-45
2022/09/07 00:50:57;;;;;;;4.45;2.40;;;;;;;;;;5073864;28;20031;-44
2022/09/07 00:53:34;;;;;;;3.05;2.75;;;;;;;;;;5074005;28;20033;-44
2022/09/07 00:56:00;;;;;;;3.92;2.75;;;;;;;;;;5074037;28;20051;-44
2022/09/07 00:58:26;;;;;;;5.38;3.45;;;;;;;;;;5073901;28;20470;-44
2022/09/07 01:00:51;;;;;;;4.75;2.90;;;;;;;;;;5073849;28;20029;-44
2022/09/07 01:03:21;;;;;;;10.02;3.00;;;;;;;;;;5073666;28;20387;-44
2022/09/07 01:05:49;;;;;;;3.78;2.80;;;;;;;;;;5073754;28;20078;-45
2022/09/07 01:08:15;;;;;;;5.25;2.78;;;;;;;;;;5073882;28;20040;-44
2022/09/07 01:10:40;;;;;;;5.20;4.22;;;;;;;;;;5073350;28;20052;-44
2022/09/07 01:13:06;;;;;;;4.85;3.45;;;;;;;;;;5073607;28;20051;-44
2022/09/07 01:15:54;;;;;;;3.50;2.95;;;;;;;;;;5073901;28;20031;-44
2022/09/07 01:18:29;;;;;;;6.07;3.70;;;;;;;;;;5065230;28;20174;-44
2022/09/07 01:20:54;;;;;;;4.18;3.08;;;;;;;;;;5073663;28;20059;-45
2022/09/07 01:23:28;;;;;;;4.05;2.92;;;;;;;;;;5073498;28;20467;-44
2022/09/07 01:25:54;;;;;;;5.82;3.28;;;;;;;;;;5072055;28;20077;-44
2022/09/07 01:28:21;;;;;;;5.80;2.78;;;;;;;;;;5073358;28;20039;-44
2022/09/07 01:30:53;;;;;;;4.60;3.42;;;;;;;;;;5073233;28;20099;-45
2022/09/07 01:33:27;;;;;;;4.68;3.63;;;;;;;;;;5073573;28;20530;-45
2022/09/07 01:36:02;;;;;;;4.18;3.20;;;;;;;;;;5073115;28;20038;-45
2022/09/07 01:38:27;;;;;;;4.07;3.22;;;;;;;;;;5073145;28;20540;-45
2022/09/07 01:41:06;;;;;;;4.40;3.17;;;;;;;;;;5073149;28;20024;-44
2022/09/07 01:43:45;;;;;;;3.75;2.97;;;;;;;;;;5073405;28;20050;-44
2022/09/07 01:46:17;;;;;;;6.38;4.20;;;;;;;;;;5072729;28;20501;-44
2022/09/07 01:48:44;;;;;;;6.20;4.13;;;;;;;;;;5073280;28;20043;-44
2022/09/07 01:51:10;;;;;;;5.82;4.15;;;;;;;;;;5073069;28;20026;-44
2022/09/07 01:53:49;;;;;;;6.70;3.88;;;;;;;;;;5071469;28;20418;-45
2022/09/07 01:56:35;;;;;;;4.63;3.88;;;;;;;;;;5072707;28;20494;-45
2022/09/07 01:59:04;;;;;;;5.07;3.97;;;;;;;;;;5072285;28;20040;-45
2022/09/07 02:01:42;;;;;;;7.05;3.75;;;;;;;;;;5072673;28;20036;-44
2022/09/07 02:04:10;;;;;;;7.13;4.65;;;;;;;;;;5072591;28;20033;-44
2022/09/07 02:06:35;;;;;;;7.18;4.70;;;;;;;;;;5072437;28;20028;-45
2022/09/07 02:09:08;;;;;;;6.28;4.68;;;;;;;;;;5071001;28;20505;-45
2022/09/07 02:11:34;;;;;;;;;;;;;;;;;;5072969;28;20360;-44
2022/09/07 02:14:02;;;;;;;6.97;4.28;;;;;;;;;;5072368;28;19966;-44
2022/09/07 02:16:29;;;;;;;8.27;5.75;;;;;;;;;;5072723;28;20371;-44
2022/09/07 02:18:56;;;;;;;5.60;4.25;;;;;;;;;;5072153;28;20027;-45
2022/09/07 02:21:25;;;;;;;6.40;5.35;;;;;;;;;;5072313;28;20035;-44
2022/09/07 02:23:53;;;;;;;6.22;5.07;;;;;;;;;;5072248;28;20020;-44
2022/09/07 02:26:20;;;;;;;9.60;5.38;;;;;;;;;;5072204;28;20025;-44
2022/09/07 02:28:46;;;;;;;6.97;4.80;;;;;;;;;;5072006;28;20475;-45
2022/09/07 02:31:11;;;;;;;6.63;4.90;;;;;;;;;;5072037;28;20031;-45
2022/09/07 02:33:37;;;;;;;5.78;4.88;;;;;;;;;;5072073;28;20027;-50
2022/09/07 02:36:03;;;;;;;6.47;4.68;;;;;;;;;;5071799;28;20039;-44
2022/09/07 02:38:29;;;;;;;6.93;4.85;;;;;;;;;;5072243;28;20024;-44
2022/09/07 02:40:55;;;;;;;8.48;5.10;;;;;;;;;;5071799;28;20032;-45
2022/09/07 02:43:21;;;;;;;8.90;5.28;;;;;;;;;;5070631;28;20143;-45
2022/09/07 02:45:46;;;;;;;6.90;4.03;;;;;;;;;;5071882;28;20024;-44
2022/09/07 02:48:12;;;;;;;10.70;4.97;;;;;;;;;;5071652;28;20391;-45
2022/09/07 02:50:55;;;;;;;8.25;5.63;;;;;;;;;;5070422;28;20025;-45
2022/09/07 02:53:21;;;;;;;6.93;4.85;;;;;;;;;;5071812;28;20055;-44
2022/09/07 02:56:05;;;;;;;6.60;4.75;;;;;;;;;;5071822;28;20060;-45
2022/09/07 02:58:30;;;;;;;7.45;4.78;;;;;;;;;;5071529;28;20035;-45
2022/09/07 03:01:01;;;;;;;9.60;5.35;;;;;;;;;;5071838;28;20029;-45
2022/09/07 03:03:38;;;;;;;8.77;5.70;;;;;;;;;;5071835;28;20024;-44
2022/09/07 03:06:05;;;;;;;9.63;4.78;;;;;;;;;;5071576;28;20084;-45
2022/09/07 03:08:34;;;;;;;7.90;5.45;;;;;;;;;;5071510;28;20063;-45
2022/09/07 03:11:00;;;;;;;6.72;4.68;;;;;;;;;;5070498;28;20053;-44
2022/09/07 03:13:28;;;;;;;5.28;4.40;;;;;;;;;;5071585;28;20025;-44
2022/09/07 03:15:53;;;;;;;6.55;5.30;;;;;;;;;;5071482;28;20115;-45
2022/09/07 03:18:19;;;;;;;4.88;4.30;;;;;;;;;;5071380;28;20108;-45
2022/09/07 03:20:45;;;;;;;5.88;4.50;;;;;;;;;;5071667;28;20035;-44
2022/09/07 03:23:10;;;;;;;11.75;4.35;;;;;;;;;;5071429;28;20412;-44
2022/09/07 03:25:36;;;;;;;5.70;4.03;;;;;;;;;;5071451;28;20029;-44
2022/09/07 03:28:01;;;;;;;6.15;4.05;;;;;;;;;;5071177;28;20066;-44
2022/09/07 03:30:27;;;;;;;6.07;4.30;;;;;;;;;;5071330;28;20032;-44
2022/09/07 03:32:52;;;;;;;7.35;4.65;;;;;;;;;;5071510;28;20029;-44
2022/09/07 03:35:18;;;;;;;4.95;3.88;;;;;;;;;;5071325;28;20082;-45
2022/09/07 03:37:43;;;;;;;8.73;4.43;;;;;;;;;;5071289;28;20103;-44
2022/09/07 03:40:10;;;;;;;5.22;4.35;;;;;;;;;;5071348;28;20032;-45
2022/09/07 03:42:36;;;;;;;5.55;4.55;;;;;;;;;;5071265;28;20073;-45
2022/09/07 03:45:02;;;;;;;7.63;5.65;;;;;;;;;;5071090;28;20024;-45
2022/09/07 03:47:27;;;;;;;6.93;5.15;;;;;;;;;;5071046;28;20086;-44
2022/09/07 03:49:53;;;;;;;6.65;4.88;;;;;;;;;;5071367;28;20029;-44
2022/09/07 03:52:18;;;;;;;6.53;4.93;;;;;;;;;;5069738;28;20021;-44
2022/09/07 03:54:43;;;;;;;4.82;4.00;;;;;;;;;;5071091;28;20100;-44
2022/09/07 03:57:09;;;;;;;6.55;5.40;;;;;;;;;;5071042;28;20352;-44
2022/09/07 03:59:35;;;;;;;8.30;4.85;;;;;;;;;;5070998;28;20104;-45
2022/09/07 04:02:00;;;;;;;5.55;4.65;;;;;;;;;;5071196;28;20021;-45
2022/09/07 04:04:26;;;;;;;4.88;4.40;;;;;;;;;;5069668;28;20028;-45
2022/09/07 04:06:51;;;;;;;4.82;4.32;;;;;;;;;;5071161;28;20028;-44
2022/09/07 04:09:17;;;;;;;4.88;4.20;;;;;;;;;;5070827;28;20025;-45
2022/09/07 04:11:43;;;;;;;5.57;4.57;;;;;;;;;;5071206;28;20040;-45
2022/09/07 04:14:10;;;;;;;6.32;5.28;;;;;;;;;;5070862;28;20024;-45
2022/09/07 04:16:35;;;;;;;4.72;4.22;;;;;;;;;;5070906;28;20483;-44
2022/09/07 04:19:00;;;;;;;8.65;4.32;;;;;;;;;;5071018;28;20024;-45
2022/09/07 04:21:27;;;;;;;8.07;4.28;;;;;;;;;;5070814;28;20110;-45
2022/09/07 04:23:52;;;;;;;4.65;3.70;;;;;;;;;;5073872;28;20029;-44
2022/09/07 04:26:18;;;;;;;4.03;3.67;;;;;;;;;;5073070;28;20434;-45
2022/09/07 04:28:44;;;;;;;5.25;4.30;;;;;;;;;;5074422;28;20036;-44
2022/09/07 04:31:10;;;;;;;4.43;4.00;;;;;;;;;;5074610;28;20038;-44
2022/09/07 04:33:35;;;;;;;9.93;4.45;;;;;;;;;;5074427;28;20024;-45
2022/09/07 04:36:01;;;;;;;6.72;4.03;;;;;;;;;;5074249;28;20383;-44
2022/09/07 04:38:26;;;;;;;7.32;4.35;;;;;;;;;;5074351;28;20023;-45
2022/09/07 04:41:07;;;;;;;7.40;3.72;;;;;;;;;;5074255;28;20172;-44
2022/09/07 04:43:32;;;;;;;4.43;3.83;;;;;;;;;;5074425;28;20032;-45
2022/09/07 04:46:01;;;;;;;5.75;4.40;;;;;;;;;;5074335;28;20466;-45
2022/09/07 04:48:26;;;;;;;5.70;4.55;;;;;;;;;;5074089;28;20574;-45
2022/09/07 04:50:51;;;;;;;5.82;5.00;;;;;;;;;;5074271;28;20111;-45
2022/09/07 04:53:18;;;;;;;6.97;4.68;;;;;;;;;;5072739;28;20033;-45
2022/09/07 04:55:44;;;;;;;7.40;4.95;;;;;;;;;;5074337;28;20424;-45
2022/09/07 04:58:09;;;;;;;7.25;4.22;;;;;;;;;;5073911;28;20028;-45
2022/09/07 05:00:38;;;;;;;7.70;5.35;;;;;;;;;;5074156;28;20631;-44
2022/09/07 05:03:04;;;;;;;8.55;5.22;;;;;;;;;;5073855;28;20514;-44
2022/09/07 05:05:29;;;;;;;8.25;4.65;;;;;;;;;;5074002;28;20017;-45
2022/09/07 05:07:55;;;;;;;6.75;5.20;;;;;;;;;;5073990;28;20180;-45
2022/09/07 05:10:20;;;;;;;7.78;5.30;;;;;;;;;;5073561;28;20496;-45
2022/09/07 05:12:46;;;;;;;6.88;5.07;;;;;;;;;;5073952;28;20509;-45
2022/09/07 05:15:11;;;;;;;6.10;4.85;;;;;;;;;;5073553;28;20017;-45
2022/09/07 05:17:37;;;;;;;6.72;4.93;;;;;;;;;;5073559;28;20029;-44
2022/09/07 05:20:02;;;;;;;7.75;5.22;;;;;;;;;;5073679;28;20028;-44
2022/09/07 05:22:28;;;;;;;4.85;3.85;;;;;;;;;;5073597;28;20468;-45
2022/09/07 05:24:53;;;;;;;6.88;4.03;;;;;;;;;;5073713;28;20066;-45
2022/09/07 05:27:19;;;;;;;6.25;4.20;;;;;;;;;;5073180;28;20494;-45
2022/09/07 05:29:45;;;;;;;7.15;4.88;;;;;;;;;;5073224;28;20036;-45
2022/09/07 05:32:11;;;;;;;4.70;4.07;;;;;;;;;;5073531;28;20028;-45
2022/09/07 05:34:37;;;;;;;7.97;5.50;;;;;;;;;;5072466;28;20429;-44
2022/09/07 05:37:02;;;;;;;7.68;4.70;;;;;;;;;;5073162;28;20035;-46
2022/09/07 05:39:28;;;;;;;6.07;4.43;;;;;;;;;;5073106;28;20036;-45
2022/09/07 05:41:54;;;;;;;7.20;4.22;;;;;;;;;;5073111;28;20070;-44
2022/09/07 05:44:19;;;;;;;4.78;3.80;;;;;;;;;;5072928;28;20047;-44
2022/09/07 05:46:45;;;;;;;6.95;4.25;;;;;;;;;;5072841;28;20040;-45
2022/09/07 05:49:10;;;;;;;6.55;5.25;;;;;;;;;;5072858;28;20021;-45
2022/09/07 05:51:36;;;;;;;5.97;4.10;;;;;;;;;;5073212;28;20081;-45
2022/09/07 05:54:01;;;;;;;10.90;3.67;;;;;;;;;;5071534;28;20021;-45
2022/09/07 05:56:27;;;;;;;4.68;3.75;;;;;;;;;;5071433;28;20036;-45
2022/09/07 05:58:53;;;;;;;8.45;5.18;;;;;;;;;;5072773;28;20032;-45
2022/09/07 06:01:19;;;;;;;4.85;3.97;;;;;;;;;;5072656;28;20020;-45
2022/09/07 06:03:44;;;;;;;5.00;4.28;;;;;;;;;;5072629;28;20367;-45
2022/09/07 06:06:11;;;;;;;4.80;3.95;;;;;;;;;;5072624;28;20609;-45
2022/09/07 06:08:38;;;;;;;6.80;4.47;;;;;;;;;;5072655;28;20044;-44
2022/09/07 06:11:07;;;;;;;7.38;4.03;;;;;;;;;;5071070;28;20080;-44
2022/09/07 06:13:33;;;;;;;4.72;3.58;;;;;;;;;;5072496;28;20099;-45
2022/09/07 06:16:08;;;;;;;5.80;4.38;;;;;;;;;;5072651;28;20131;-45
2022/09/07 06:18:35;;;;;;;7.80;5.10;;;;;;;;;;5072324;28;20033;-45
2022/09/07 06:21:01;;;;;;;7.43;4.53;;;;;;;;;;5072209;28;20486;-44
2022/09/07 06:23:26;;;;;;;8.57;5.35;;;;;;;;;;5072311;28;20391;-45
2022/09/07 06:25:52;;;;;;;5.18;3.53;;;;;;;;;;5072525;28;20024;-45
2022/09/07 06:28:18;;;;;;;6.32;4.80;;;;;;;;;;5072351;28;20548;-45
2022/09/07 06:30:43;;;;;;;5.25;4.35;;;;;;;;;;5072018;28;20021;-45
2022/09/07 06:33:09;;;;;;;5.40;3.95;;;;;;;;;;5072081;28;20146;-45
2022/09/07 06:35:34;;;;;;;8.60;4.60;;;;;;;;;;5072106;28;20013;-45
2022/09/07 06:38:00;;;;;;;8.10;3.75;;;;;;;;;;5071858;28;20028;-46
2022/09/07 06:40:25;;;;;;;5.47;3.75;;;;;;;;;;5071951;28;20016;-44
2022/09/07 06:42:51;;;;;;;5.78;4.38;;;;;;;;;;5070635;28;20051;-45
2022/09/07 06:45:17;;;;;;;7.15;3.95;;;;;;;;;;5071657;28;20013;-44
2022/09/07 06:47:43;;;;;;;5.15;3.97;;;;;;;;;;5071855;28;20086;-45
2022/09/07 06:50:08;;;;;;;7.43;4.85;;;;;;;;;;5071750;28;20092;-44
2022/09/07 06:52:36;;;;;;;6.78;3.88;;;;;;;;;;5071720;28;20064;-44
2022/09/07 06:55:02;;;;;;;7.68;3.60;;;;;;;;;;5071656;28;20017;-44
2022/09/07 06:57:28;;;;;;;6.35;3.78;;;;;;;;;;5071648;28;20033;-44
2022/09/07 06:59:54;;;;;;;5.55;3.95;;;;;;;;;;5071645;28;20073;-44
2022/09/07 07:02:23;;;;;;;7.20;4.32;;;;;;;;;;5070677;28;20028;-44
2022/09/07 07:04:49;;;;;;;11.48;3.97;;;;;;;;;;5071627;28;20047;-44
2022/09/07 07:07:14;;;;;;;5.25;4.15;;;;;;;;;;5071626;28;20044;-44
2022/09/07 07:09:40;;;;;;;5.47;4.18;;;;;;;;;;5071526;28;20442;-44
2022/09/07 07:12:06;;;;;;;8.68;3.80;;;;;;;;;;5070513;28;20521;-44
2022/09/07 07:14:32;;;;;;;5.00;4.30;;;;;;;;;;5071547;28;20379;-44
2022/09/07 07:16:58;;;;;;;4.20;3.70;;;;;;;;;;5071491;28;20033;-44
2022/09/07 07:19:23;;;;;;;5.25;4.13;;;;;;;;;;5071368;28;20020;-44
2022/09/07 07:21:49;;;;;;;9.20;4.68;;;;;;;;;;5070998;28;20721;-44
2022/09/07 07:24:15;;;;;;;6.28;4.05;;;;;;;;;;5070679;28;20071;-45
2022/09/07 07:26:47;;;;;;;6.80;4.53;;;;;;;;;;5069974;28;20035;-45
2022/09/07 07:29:13;;;;;;;5.88;4.43;;;;;;;;;;5071165;28;20040;-44
2022/09/07 07:31:39;;;;;;;5.57;4.03;;;;;;;;;;5071451;28;20492;-44
2022/09/07 07:34:05;;;;;;;9.77;4.80;;;;;;;;;;5071138;28;20064;-45
2022/09/07 07:36:30;;;;;;;5.43;4.15;;;;;;;;;;5071378;28;20012;-44
2022/09/07 07:38:56;;;;;;;6.13;4.13;;;;;;;;;;5071306;28;20478;-45
2022/09/07 07:41:24;;;;;;;5.47;4.20;;;;;;;;;;5071430;28;20035;-45
2022/09/07 07:43:55;;;;;;;5.15;4.22;;;;;;;;;;5071263;28;20506;-44
2022/09/07 07:46:21;;;;;;;6.40;4.43;;;;;;;;;;5071022;28;20047;-44
2022/09/07 07:48:47;;;;;;;7.10;4.72;;;;;;;;;;5071090;28;20033;-44
2022/09/07 07:51:13;;;;;;;6.57;4.03;;;;;;;;;;5071045;28;20035;-46
2022/09/07 07:53:40;;;;;;;6.50;4.13;;;;;;;;;;5069983;28;20467;-44
2022/09/07 07:56:06;;;;;;;5.88;4.30;;;;;;;;;;5071021;28;20028;-44
2022/09/07 07:58:32;;;;;;;5.22;4.07;;;;;;;;;;5073696;28;20017;-44
2022/09/07 08:01:06;;;;;;;5.72;4.65;;;;;;;;;;5073786;28;20051;-45
2022/09/07 08:03:36;;;;;;;6.80;4.63;;;;;;;;;;5075221;28;20402;-44
2022/09/07 08:06:06;;;;;;;5.90;4.60;;;;;;;;;;5074883;28;20050;-44
2022/09/07 08:08:32;;;;;;;6.47;4.28;;;;;;;;;;5074767;28;20041;-44
2022/09/07 08:11:00;;;;;;;8.93;5.18;;;;;;;;;;5074665;28;20119;-45
2022/09/07 08:13:28;;;;;;;5.20;2.85;;;;;;;;;;5074852;28;20427;-44
2022/09/07 08:15:58;;;;;;;8.70;4.38;;;;;;;;;;5074746;28;20108;-45
2022/09/07 08:18:24;;;;;;;4.75;3.25;;;;;;;;;;5074483;28;20054;-44
2022/09/07 08:20:49;;;;;;;5.25;3.42;;;;;;;;;;5074641;28;20017;-44
2022/09/07 08:23:15;;;;;;;3.58;2.55;;;;;;;;;;5074480;28;20025;-45
2022/09/07 08:25:50;;;;;;;4.30;3.03;;;;;;;;;;5074981;28;20025;-44
2022/09/07 08:28:16;;;;;;;4.47;3.08;;;;;;;;;;5074358;28;20090;-45
2022/09/07 08:30:41;;;;;;;4.90;3.13;;;;;;;;;;5074483;28;20039;-44
2022/09/07 08:33:07;;;;;;;6.03;2.90;;;;;;;;;;5074335;28;20028;-45
2022/09/07 08:35:32;;;;;;;5.78;2.13;;;;;;;;;;5074441;28;20559;-44
2022/09/07 08:37:58;;;;;;;2.40;1.83;;;;;;;;;;5074204;28;20036;-44
2022/09/07 08:40:23;;;;;;;2.08;1.88;;;;;;;;;;5074272;28;20028;-44
2022/09/07 08:42:59;;;;;;;2.95;2.40;;;;;;;;;;5074347;28;20318;-44
2022/09/07 08:45:30;;;;;;;4.30;3.20;;;;;;;;;;5074360;28;20091;-44
2022/09/07 08:47:56;;;;;;;4.38;2.42;;;;;;;;;;5074102;28;20407;-45
2022/09/07 08:50:32;;;;;;;2.60;2.03;;;;;;;;;;5074080;28;20016;-45
2022/09/07 08:53:00;;;;;;;5.03;2.88;;;;;;;;;;5074068;28;20046;-44
2022/09/07 08:55:32;;;;;;;2.45;2.10;;;;;;;;;;5074021;28;20024;-44
2022/09/07 08:58:00;;;;;;;3.42;2.20;;;;;;;;;;5074034;28;20040;-44
2022/09/07 09:00:26;;;;;;;2.72;2.00;;;;;;;;;;5074049;28;20021;-45
2022/09/07 09:02:51;;;;;;;2.67;2.13;;;;;;;;;;5073938;28;20463;-44
2022/09/07 09:05:26;;;;;;;2.80;2.58;;;;;;;;;;5074121;28;20032;-45
2022/09/07 09:07:56;;;;;;;2.13;1.90;;;;;;;;;;5073698;28;20082;-44
2022/09/07 09:10:21;;;;;;;4.43;2.10;;;;;;;;;;5072316;28;20041;-44
2022/09/07 09:12:56;;;;;;;2.80;2.00;;;;;;;;;;5072833;28;20032;-44
2022/09/07 09:15:32;;;;;;;6.40;2.67;;;;;;;;;;5073621;28;20028;-44
2022/09/07 09:18:04;;;;;;;2.70;2.03;;;;;;;;;;5073585;28;20024;-44
2022/09/07 09:20:32;;;;;;;3.95;2.65;;;;;;;;;;5073489;28;20062;-44
2022/09/07 09:23:09;;;;;;;5.00;1.80;;;;;;;;;;5073501;28;20024;-45
2022/09/07 09:25:35;;;;;;;4.93;2.05;;;;;;;;;;5073792;28;20044;-45
2022/09/07 09:28:01;;;;;;;3.88;2.22;;;;;;;;;;5073173;28;20467;-45
2022/09/07 09:30:27;;;;;;;3.47;2.70;;;;;;;;;;5073662;28;20039;-44
2022/09/07 09:33:12;;;;;;;2.20;1.90;;;;;;;;;;5073359;28;20113;-45
2022/09/07 09:35:38;;;;;;;2.13;1.52;;;;;;;;;;5072751;28;20491;-44
2022/09/07 09:38:03;;;;;;;2.58;1.95;;;;;;;;;;5073152;28;20040;-45
2022/09/07 09:40:30;;;;;;;3.55;1.95;;;;;;;;;;5073482;28;20029;-44
2022/09/07 09:42:58;;;;;;;5.03;2.10;;;;;;;;;;5073388;28;20466;-44
2022/09/07 09:45:27;;;;;;;3.17;2.63;;;;;;;;;;5073014;28;20032;-45
2022/09/07 09:47:53;;;;;;;3.17;1.92;;;;;;;;;;5073087;28;20025;-45
2022/09/07 09:50:28;;;;;;;2.55;1.88;;;;;;;;;;5073008;28;20138;-45
2022/09/07 09:52:54;;;;;;;3.10;2.20;;;;;;;;;;5072953;28;20032;-45
2022/09/07 09:55:27;;;;;;;3.25;2.90;;;;;;;;;;5072925;28;20508;-44
2022/09/07 09:57:52;;;;;;;2.35;1.77;;;;;;;;;;5072806;28;20109;-45
2022/09/07 10:00:20;;;;;;;3.58;2.58;;;;;;;;;;5072581;28;20116;-45
2022/09/07 10:03:02;;;;;;;2.55;2.20;;;;;;;;;;5072748;28;20044;-45
2022/09/07 10:05:38;;;;;;;3.72;2.50;;;;;;;;;;5072934;28;20383;-44
2022/09/07 10:08:17;;;;;;;3.53;2.35;;;;;;;;;;5072514;28;20044;-45
2022/09/07 10:10:50;;;;;;;2.42;1.90;;;;;;;;;;5071041;28;20049;-45
2022/09/07 10:13:16;;;;;;;;;;;;;;;;;;5072940;28;20094;-45
2022/09/07 10:15:41;;;;;;;2.60;1.88;;;;;;;;;;5072765;28;19905;-45
2022/09/07 10:18:16;;;;;;;3.70;2.47;;;;;;;;;;5072167;28;20417;-45
2022/09/07 10:20:41;;;;;;;6.57;3.10;;;;;;;;;;5072345;28;20077;-44
2022/09/07 10:23:17;;;;;;;4.97;2.10;;;;;;;;;;5072323;28;20036;-45
2022/09/07 10:25:43;;;;;;;3.30;2.95;;;;;;;;;;5072251;28;20094;-44
2022/09/07 10:28:19;;;;;;;2.42;1.98;;;;;;;;;;5072318;28;20036;-45
2022/09/07 10:30:45;;;;;;;3.00;2.28;;;;;;;;;;5072606;28;20081;-45
2022/09/07 10:33:31;;;;;;;4.75;2.22;;;;;;;;;;5072019;28;20052;-45
2022/09/07 10:36:16;;;;;;;4.70;2.42;;;;;;;;;;5071790;28;20454;-45
2022/09/07 10:38:53;;;;;;;3.85;2.55;;;;;;;;;;5061110;28;20376;-44
2022/09/07 10:41:22;;;;;;;3.55;2.35;;;;;;;;;;5072177;28;20035;-44
2022/09/07 10:43:49;;;;;;;2.92;2.33;;;;;;;;;;5072016;28;20099;-45
2022/09/07 10:46:20;;;;;;;3.25;2.50;;;;;;;;;;5071869;28;20080;-44
2022/09/07 10:48:58;;;;;;;3.78;2.67;;;;;;;;;;5071763;28;20032;-45
2022/09/07 10:51:29;;;;;;;2.20;2.00;;;;;;;;;;5072010;28;20352;-46
2022/09/07 10:53:54;;;;;;;2.70;2.25;;;;;;;;;;5071821;28;20036;-45
2022/09/07 10:56:25;;;;;;;2.13;1.80;;;;;;;;;;5071725;28;20047;-45
2022/09/07 10:58:59;;;;;;;3.08;2.20;;;;;;;;;;5070407;28;20111;-45
2022/09/07 11:01:43;;;;;;;2.78;2.00;;;;;;;;;;5071594;28;20025;-45
2022/09/07 11:04:09;;;;;;;2.20;1.80;;;;;;;;;;5071642;28;20020;-45
2022/09/07 11:06:44;;;;;;;3.22;2.05;;;;;;;;;;5071458;28;20030;-45
2022/09/07 11:09:28;;;;;;;4.95;2.45;;;;;;;;;;5071280;28;20400;-45
2022/09/07 11:12:08;;;;;;;2.60;1.75;;;;;;;;;;5071654;28;20041;-45
2022/09/07 11:14:44;;;;;;;1.77;1.55;;;;;;;;;;5071472;28;20032;-45
2022/09/07 11:17:24;;;;;;;2.03;1.83;;;;;;;;;;5070175;28;20472;-45
2022/09/07 11:19:52;;;;;;;1.55;1.45;;;;;;;;;;5071452;28;20032;-45
2022/09/07 11:22:29;;;;;;;2.53;2.30;;;;;;;;;;5071400;28;20031;-45
2022/09/07 11:25:15;;;;;;;1.70;1.50;;;;;;;;;;5071392;28;20035;-45
2022/09/07 11:27:48;;;;;;;2.60;2.20;;;;;;;;;;5070809;28;20143;-45
2022/09/07 11:30:17;;;;;;;3.20;2.33;;;;;;;;;;5070246;28;20060;-45
2022/09/07 11:32:54;;;;;;;4.28;2.40;;;;;;;;;;5070689;28;20013;-45
2022/09/07 11:35:28;;;;;;;2.15;1.88;;;;;;;;;;5071274;28;20115;-45
2022/09/07 11:37:58;;;;;;;5.38;1.75;;;;;;;;;;5071283;28;20052;-45
2022/09/07 11:40:28;;;;;;;4.85;1.50;;;;;;;;;;5071251;28;20017;-45
2022/09/07 11:43:08;;;;;;;2.65;2.33;;;;;;;;;;5071243;28;20044;-44
2022/09/07 11:45:37;;;;;;;1.90;1.65;;;;;;;;;;5071198;28;20036;-45
2022/09/07 11:48:06;;;;;;;2.38;2.17;;;;;;;;;;5071215;28;20040;-45
2022/09/07 11:50:34;;;;;;;5.32;2.08;;;;;;;;;;5071132;28;20479;-44
2022/09/07 11:53:02;;;;;;;2.20;1.98;;;;;;;;;;5071466;28;20423;-45
2022/09/07 11:55:31;;;;;;;2.67;2.08;;;;;;;;;;5071173;28;20021;-45
2022/09/07 11:58:15;;;;;;;3.03;2.10;;;;;;;;;;5070922;28;20025;-44
2022/09/07 12:00:47;;;;;;;2.72;2.40;;;;;;;;;;5071081;28;20033;-45
2022/09/07 12:03:22;;;;;;;2.47;1.85;;;;;;;;;;5071025;28;20109;-45
2022/09/07 12:05:48;;;;;;;1.88;1.58;;;;;;;;;;5070984;28;20032;-45
2022/09/07 12:08:25;;;;;;;2.75;1.63;;;;;;;;;;5071125;28;20463;-45
2022/09/07 12:10:56;;;;;;;2.40;1.65;;;;;;;;;;5070802;28;20052;-45
2022/09/07 12:13:22;;;;;;;2.47;1.73;;;;;;;;;;5070864;28;20032;-45
2022/09/07 12:15:56;;;;;;;1.58;1.42;;;;;;;;;;5071115;28;20025;-45
2022/09/07 12:18:40;;;;;;;1.85;1.75;;;;;;;;;;5070751;28;20028;-45
2022/09/07 12:21:25;;;;;;;1.77;1.55;;;;;;;;;;5070817;28;20521;-45
2022/09/07 12:23:50;;;;;;;3.53;1.30;;;;;;;;;;5070859;28;20028;-45
2022/09/07 12:26:34;;;;;;;3.70;2.20;;;;;;;;;;5070687;28;20474;-45
2022/09/07 12:29:00;;;;;;;1.95;1.52;;;;;;;;;;5071020;28;20079;-45
2022/09/07 12:31:41;;;;;;;1.63;1.52;;;;;;;;;;5070709;28;20464;-45
2022/09/07 12:34:25;;;;;;;3.05;1.60;;;;;;;;;;5070590;28;20081;-45
2022/09/07 12:36:51;;;;;;;7.20;2.00;;;;;;;;;;5070724;28;20655;-45
2022/09/07 12:39:19;;;;;;;2.55;2.13;;;;;;;;;;5070728;28;20120;-45
2022/09/07 12:41:47;;;;;;;2.42;1.70;;;;;;;;;;5069327;28;20040;-45
2022/09/07 12:44:22;;;;;;;1.60;1.40;;;;;;;;;;5072428;28;20013;-45
2022/09/07 12:46:52;;;;;;;4.38;1.48;;;;;;;;;;5074079;28;20032;-45
2022/09/07 12:49:37;;;;;;;2.85;2.00;;;;;;;;;;5074034;28;20123;-45
2022/09/07 12:52:21;;;;;;;2.22;1.63;;;;;;;;;;5074498;28;20039;-46
2022/09/07 12:54:56;;;;;;;1.45;1.27;;;;;;;;;;5074091;28;20020;-45
2022/09/07 12:58:00;;;;;;;3.63;2.25;;;;;;;;;;5074219;28;20024;-45
2022/09/07 13:00:33;;;;;;;3.00;1.98;;;;;;;;;;5011705;28;20034;-45
2022/09/07 13:03:13;;;;;;;4.13;1.63;;;;;;;;;;5011813;28;20117;-45
2022/09/07 13:05:50;;;;;;;2.90;2.28;;;;;;;;;;5049721;28;20033;-45
2022/09/07 13:08:19;;;;;;;1.95;1.60;;;;;;;;;;5073701;28;20048;-45
2022/09/07 13:10:46;;;;;;;2.33;1.50;;;;;;;;;;5073637;28;20044;-45
2022/09/07 13:13:14;;;;;;;4.95;1.38;;;;;;;;;;5073982;28;20082;-45
2022/09/07 13:15:41;;;;;;;2.55;1.85;;;;;;;;;;5073871;28;20173;-45
2022/09/07 13:18:11;;;;;;;1.90;1.70;;;;;;;;;;5073500;28;20089;-45
2022/09/07 13:20:37;;;;;;;5.57;1.92;;;;;;;;;;5073642;28;20048;-45
2022/09/07 13:23:06;;;;;;;7.95;2.00;;;;;;;;;;5073612;28;20463;-45
2022/09/07 13:25:35;;;;;;;1.90;1.80;;;;;;;;;;5073604;28;20016;-48
2022/09/07 13:28:02;;;;;;;1.75;1.60;;;;;;;;;;5073354;28;20492;-45
2022/09/07 13:30:58;;;;;;;3.35;1.67;;;;;;;;;;5073556;28;20025;-45
2022/09/07 13:33:24;;;;;;;7.30;2.72;;;;;;;;;;5060493;28;20127;-45
2022/09/07 13:35:51;;;;;;;1.90;1.80;;;;;;;;;;5073409;28;20107;-45
2022/09/07 13:38:17;;;;;;;3.55;2.20;;;;;;;;;;5073295;28;20029;-45
2022/09/07 13:40:45;;;;;;;3.97;2.33;;;;;;;;;;5073267;28;20527;-45
2022/09/07 13:43:15;;;;;;;2.13;1.83;;;;;;;;;;5073327;28;20028;-45
2022/09/07 13:45:52;;;;;;;2.40;2.20;;;;;;;;;;5073339;28;20028;-45
2022/09/07 13:48:24;;;;;;;2.97;2.00;;;;;;;;;;5072841;28;20159;-45
2022/09/07 13:51:09;;;;;;;3.03;1.90;;;;;;;;;;5073000;28;20029;-45
2022/09/07 13:53:35;;;;;;;2.75;2.00;;;;;;;;;;5072987;28;20025;-45
2022/09/07 13:56:07;;;;;;;3.33;1.63;;;;;;;;;;5072350;28;20016;-45
2022/09/07 13:58:32;;;;;;;4.30;1.95;;;;;;;;;;5072688;28;20498;-45
2022/09/07 14:01:03;;;;;;;2.10;1.52;;;;;;;;;;5072751;28;20017;-45
2022/09/07 14:03:39;;;;;;;3.08;1.98;;;;;;;;;;5072628;28;20035;-45
2022/09/07 14:06:16;;;;;;;3.42;2.80;;;;;;;;;;5072910;28;20102;-45
2022/09/07 14:08:46;;;;;;;3.75;2.20;;;;;;;;;;5072568;28;20051;-46
2022/09/07 14:11:17;;;;;;;1.75;1.52;;;;;;;;;;5072449;28;20051;-45
2022/09/07 14:13:43;;;;;;;2.55;1.80;;;;;;;;;;5072499;28;20101;-45
2022/09/07 14:16:09;;;;;;;2.83;1.92;;;;;;;;;;5072536;28;20048;-44
2022/09/07 14:18:38;;;;;;;4.57;2.10;;;;;;;;;;5072653;28;20107;-45
2022/09/07 14:21:08;;;;;;;1.45;1.35;;;;;;;;;;5071899;28;20144;-45
2022/09/07 14:23:35;;;;;;;1.75;1.65;;;;;;;;;;5072649;28;20040;-46
2022/09/07 14:26:07;;;;;;;2.58;1.63;;;;;;;;;;5072570;28;20521;-45
2022/09/07 14:28:37;;;;;;;9.43;2.25;;;;;;;;;;5072454;28;20072;-45
2022/09/07 14:31:04;;;;;;;2.35;1.73;;;;;;;;;;5072248;28;20391;-45
2022/09/07 14:33:30;;;;;;;2.42;2.13;;;;;;;;;;5072067;28;20029;-45
2022/09/07 14:35:56;;;;;;;3.17;1.10;;;;;;;;;;5070907;28;20095;-45
2022/09/07 14:38:26;;;;;;;2.85;1.65;;;;;;;;;;5072027;28;20024;-45
2022/09/07 14:40:59;;;;;;;3.55;2.42;;;;;;;;;;5072042;28;20028;-45
2022/09/07 14:43:35;;;;;;;2.08;1.75;;;;;;;;;;5071904;28;20030;-45
2022/09/07 14:46:09;;;;;;;1.58;1.48;;;;;;;;;;5071953;28;20045;-45
2022/09/07 14:48:37;;;;;;;2.88;1.40;;;;;;;;;;5071770;28;20115;-45
2022/09/07 14:51:03;;;;;;;2.65;1.55;;;;;;;;;;5071881;28;20024;-45
2022/09/07 14:53:28;;;;;;;2.50;1.45;;;;;;;;;;5072033;28;20064;-45
2022/09/07 14:56:01;;;;;;;1.85;1.63;;;;;;;;;;5070612;28;20044;-45